LJAJ weather

Ajdovščina Airfield
Ajdovscina, Ajdovscina, Slovenia

Public forecast

Using degrees Celsius for public forecast. Weather courtesy of forecast.io.

METAR (pilot weather report)

Closest report is Trieste–Friuli Venezia Giulia Airport, 17.7 nm (32.8 km) WSW. Retrieved 2019/07/17 22:20 UTC (0 seconds ago):

LIPQ 172220Z AUTO 14003KT 9999 BKN083 BKN180 23/16 Q1011

TAF (pilot weather forecast)

Closest forecast is Trieste–Friuli Venezia Giulia Airport, 17.7 nm (32.8 km) WSW. Retrieved 2019/07/17 18:21 UTC (4 hours ago):

TAF LIPQ 171700Z 1718/1818 VRB06KT 9999 SCT040 TEMPO 1721/1724 SHRA BECMG 1810/1812 20010KT BECMG 1816/1818 VRB05KT